Dades meteomassalio
Diari Summary for Octubre 9, 2017 Units:  Metric    English   Both
« Previous Day
Next Day »
Diari Semanal Mensual Anual Personalitzat
  Maxima: Minima: Mijana:
Temperatura: -17.8 °C -16.6 °C -11 °C
Rosada: -17.8 °C -19.3 °C -17.1 °C
Humitat: Humidity % 27 % 50 %
Velocitat del vent: 0 km/h 0 km/h 6.3 km/h
Racha vent: 0 km/h - -
Vent:- - SW
Pressio: 0 hPa 34567.7 hPa -
Pluja: 0 mm    
Historical Graphs
 
 
Tabular Data for Octubre 9, 2017
Time Temperature Dew Point Pressure Wind Wind Speed Wind Gust Humidity Rainfall Rate (Hourly) solar Conditions
-17.8 °C -17.8 °C 0 hPa Calm     Humidity % 0 mm SolarRadiationWatts/m^2 W/m2 Conditions
00:06 -14.4 °C -19.2 °C 34611.7 hPa ESE 7.7 km/h 7.7 km/h 54 % 0 mm 0.0 W/m2 CLR
00:11 -14.7 °C -19.3 °C 34611.7 hPa Calm     55 % 0 mm 0.0 W/m2 CLR
00:16 -14.7 °C -19.3 °C 34625.2 hPa Calm     55 % 0 mm 0.0 W/m2 CLR
00:21 -14.7 °C -19.2 °C 34625.2 hPa Calm     56 % 0 mm 0.0 W/m2 CLR
00:26 -14.7 °C -19.1 °C 34625.2 hPa Calm     57 % 0 mm 0.0 W/m2 CLR
00:31 -14.7 °C -19.1 °C 34625.2 hPa Calm     57 % 0 mm 0.0 W/m2 CLR
00:37 -14.7 °C -19.1 °C 34611.7 hPa Calm     57 % 0 mm 0.0 W/m2 CLR
00:42 -14.7 °C -19.1 °C 34625.2 hPa Calm     57 % 0 mm 0.0 W/m2 CLR
00:47 -14.7 °C -19.1 °C 34611.7 hPa Calm     57 % 0 mm 0.0 W/m2 CLR
00:52 -14.4 °C -18.7 °C 34625.2 hPa Calm     58 % 0 mm 0.0 W/m2 CLR
00:57 -14.4 °C -18.8 °C 34611.7 hPa Calm     57 % 0 mm 0.0 W/m2 CLR
01:02 -14.4 °C -18.7 °C 34625.2 hPa Calm     58 % 0 mm 0.0 W/m2 CLR
01:07 -14.4 °C -18.7 °C 34625.2 hPa Calm     58 % 0 mm 0.0 W/m2 CLR
01:12 -14.4 °C -18.7 °C 34625.2 hPa Calm     58 % 0 mm 0.0 W/m2 CLR
01:17 -14.7 °C -18.8 °C 34625.2 hPa Calm     59 % 0 mm 0.0 W/m2 CLR
01:22 -14.7 °C -18.8 °C 34625.2 hPa Calm     59 % 0 mm 0.0 W/m2 CLR
01:27 -14.7 °C -18.7 °C 34625.2 hPa Calm     60 % 0 mm 0.0 W/m2 CLR
01:32 -14.7 °C -18.7 °C 34625.2 hPa Calm     60 % 0 mm 0.0 W/m2 CLR
01:37 -15 °C -18.9 °C 34625.2 hPa Calm     60 % 0 mm 0.0 W/m2 CLR
01:42 -15 °C -18.8 °C 34625.2 hPa Calm     61 % 0 mm 0.0 W/m2 CLR
01:47 -15 °C -18.7 °C 34625.2 hPa Calm     62 % 0 mm 0.0 W/m2 CLR
01:52 -15 °C -18.7 °C 34625.2 hPa Calm     62 % 0 mm 0.0 W/m2 CLR
01:57 -15 °C -18.7 °C 34625.2 hPa Calm     62 % 0 mm 0.0 W/m2 CLR
02:07 -15.3 °C -18.9 °C 34625.2 hPa Calm     63 % 0 mm 0.0 W/m2 CLR
02:12 -15.3 °C -18.9 °C 34625.2 hPa Calm     63 % 0 mm 0.0 W/m2 CLR
02:17 -15.3 °C -18.8 °C 34625.2 hPa Calm     64 % 0 mm 0.0 W/m2 CLR
02:22 -15.3 °C -18.7 °C 34625.2 hPa Calm     65 % 0 mm 0.0 W/m2 CLR
02:27 -15.6 °C -18.9 °C 34625.2 hPa Calm     65 % 0 mm 0.0 W/m2 CLR
02:32 -15.6 °C -18.9 °C 34625.2 hPa Calm     65 % 0 mm 0.0 W/m2 CLR
02:37 -15.6 °C -19.1 °C 34625.2 hPa SE 9 km/h 9 km/h 64 % 0 mm 0.0 W/m2 CLR
02:42 -15.6 °C -19.2 °C 34625.2 hPa Calm     63 % 0 mm 0.0 W/m2 CLR
02:47 -15.6 °C -19.1 °C 34625.2 hPa Calm     64 % 0 mm 0.0 W/m2 CLR
02:52 -15.6 °C -19.1 °C 34625.2 hPa Calm     64 % 0 mm 0.0 W/m2 CLR
03:02 -15.6 °C -19.1 °C 34625.2 hPa Calm     64 % 0 mm 0.0 W/m2 CLR
03:07 -15.6 °C -19.1 °C 34625.2 hPa Calm     64 % 0 mm 0.0 W/m2 CLR
03:12 -15.6 °C -19.1 °C 34625.2 hPa Calm     64 % 0 mm 0.0 W/m2 CLR
03:17 -15.6 °C -19.1 °C 34625.2 hPa Calm     64 % 0 mm 0.0 W/m2 CLR
03:22 -15.6 °C -19.1 °C 34625.2 hPa Calm     64 % 0 mm 0.0 W/m2 CLR
03:27 -15.6 °C -18.9 °C 34625.2 hPa Calm     65 % 0 mm 0.0 W/m2 CLR
03:32 -15.6 °C -18.9 °C 34611.7 hPa Calm     65 % 0 mm 0.0 W/m2 CLR
03:37 -15.6 °C -18.9 °C 34611.7 hPa Calm     65 % 0 mm 0.0 W/m2 CLR
03:42 -15.6 °C -18.9 °C 34611.7 hPa Calm     65 % 0 mm 0.0 W/m2 CLR
03:47 -15.6 °C -18.8 °C 34611.7 hPa Calm     66 % 0 mm 0.0 W/m2 CLR
03:53 -15.9 °C -19.1 °C 34611.7 hPa Calm     66 % 0 mm 0.0 W/m2 CLR
03:58 -15.9 °C -19.1 °C 34611.7 hPa Calm     66 % 0 mm 0.0 W/m2 CLR
04:03 -15.9 °C -19.1 °C 34611.7 hPa Calm     66 % 0 mm 0.0 W/m2 CLR
04:08 -15.9 °C -19.1 °C 34611.7 hPa Calm     66 % 0 mm 0.0 W/m2 CLR
04:13 -15.9 °C -19 °C 34611.7 hPa Calm     67 % 0 mm 0.0 W/m2 CLR
04:18 -15.9 °C -19 °C 34611.7 hPa Calm     67 % 0 mm 0.0 W/m2 CLR
04:23 -15.9 °C -19 °C 34611.7 hPa Calm     67 % 0 mm 0.0 W/m2 CLR
04:28 -15.9 °C -19 °C 34611.7 hPa Calm     67 % 0 mm 0.0 W/m2 CLR
04:33 -15.9 °C -19.1 °C 34611.7 hPa Calm     66 % 0 mm 0.0 W/m2 CLR
04:38 -15.9 °C -19 °C 34611.7 hPa Calm     67 % 0 mm 0.0 W/m2 CLR
04:43 -15.9 °C -19 °C 34611.7 hPa Calm     67 % 0 mm 0.0 W/m2 CLR
04:48 -15.9 °C -19 °C 34625.2 hPa Calm     67 % 0 mm 0.0 W/m2 CLR
04:53 -16.2 °C -19.3 °C 34625.2 hPa Calm     67 % 0 mm 0.0 W/m2 CLR
04:58 -16.2 °C -19.2 °C 34625.2 hPa Calm     68 % 0 mm 0.0 W/m2 CLR
05:03 -16.2 °C -19.2 °C 34625.2 hPa Calm     68 % 0 mm 0.0 W/m2 CLR
05:08 -16.2 °C -19.2 °C 34625.2 hPa Calm     68 % 0 mm 0.0 W/m2 CLR
05:14 -16.2 °C -19.2 °C 34625.2 hPa Calm     68 % 0 mm 0.0 W/m2 CLR
05:23 -16.2 °C -19.2 °C 34625.2 hPa Calm     68 % 0 mm 0.0 W/m2 CLR
05:26 -16.2 °C -19.2 °C 34625.2 hPa Calm     68 % 0 mm 0.0 W/m2 CLR
05:28 -16.2 °C -19.2 °C 34625.2 hPa Calm     68 % 0 mm 0.0 W/m2 CLR
05:33 -16.2 °C -19.1 °C 34625.2 hPa Calm     69 % 0 mm 0.0 W/m2 CLR
05:35 -16.2 °C -19.1 °C 34625.2 hPa Calm     69 % 0 mm 0.0 W/m2 CLR
05:40 -16.2 °C -19.1 °C 34625.2 hPa Calm     69 % 0 mm 0.0 W/m2 CLR
05:45 -16.2 °C -19.1 °C 34625.2 hPa Calm     69 % 0 mm 0.0 W/m2 CLR
05:50 -16.2 °C -19.1 °C 34625.2 hPa Calm     69 % 0 mm 0.0 W/m2 CLR
06:05 -16.2 °C -19.1 °C 34625.2 hPa Calm     69 % 0 mm 0.0 W/m2 CLR
06:10 -16.2 °C -19 °C 34635.4 hPa Calm     70 % 0 mm 0.0 W/m2 CLR
06:15 -16.2 °C -19 °C 34635.4 hPa Calm     70 % 0 mm 0.0 W/m2 CLR
06:20 -16.6 °C -19.3 °C 34635.4 hPa Calm     70 % 0 mm 0.0 W/m2 CLR
06:25 -16.6 °C -19.3 °C 34635.4 hPa Calm     70 % 0 mm 0.0 W/m2 CLR
06:30 -16.6 °C -19.3 °C 34635.4 hPa Calm     70 % 0 mm 0.0 W/m2 CLR
06:35 -16.2 °C -19 °C 34635.4 hPa Calm     70 % 0 mm 0.0 W/m2 CLR
06:40 -16.2 °C -19 °C 34635.4 hPa Calm     70 % 0 mm 0.0 W/m2 CLR
06:45 -16.2 °C -19 °C 34625.2 hPa Calm     70 % 0 mm 0.0 W/m2 CLR
06:50 -16.2 °C -18.8 °C 34625.2 hPa Calm     71 % 0 mm 0.0 W/m2 CLR
06:55 -16.2 °C -18.8 °C 34625.2 hPa Calm     71 % 0 mm 0.0 W/m2 CLR
07:00 -16.2 °C -18.8 °C 34625.2 hPa Calm     71 % 0 mm 0.0 W/m2 CLR
07:05 -16.2 °C -18.8 °C 34625.2 hPa Calm     71 % 0 mm 0.0 W/m2 CLR
07:10 -16.2 °C -18.8 °C 34625.2 hPa Calm     72 % 0 mm 0.0 W/m2 CLR
07:15 -16.2 °C -18.8 °C 34625.2 hPa Calm     72 % 0 mm 0.0 W/m2 CLR
07:20 -16.6 °C -19.1 °C 34625.2 hPa Calm     72 % 0 mm 0.0 W/m2 CLR
07:25 -16.6 °C -18.9 °C 34625.2 hPa Calm     73 % 0 mm 0.0 W/m2 CLR
07:30 -16.6 °C -18.9 °C 34635.4 hPa Calm     73 % 0 mm 0.0 W/m2 CLR
07:36 -16.6 °C -18.9 °C 34625.2 hPa Calm     73 % 0 mm 0.0 W/m2 CLR
07:40 -16.6 °C -18.9 °C 34635.4 hPa North 12.9 km/h 12.9 km/h 73 % 0 mm 0.0 W/m2 CLR
07:51 -16.6 °C -18.8 °C 34635.4 hPa Calm     74 % 0 mm 0.0 W/m2 CLR
07:56 -16.6 °C -18.9 °C 34635.4 hPa Calm     73 % 0 mm 0.0 W/m2 CLR
08:00 -16.6 °C -18.9 °C 34635.4 hPa Calm     73 % 0 mm 0.0 W/m2 OVC
08:05 -16.6 °C -18.8 °C 34635.4 hPa Calm     74 % 0 mm 5.0 W/m2 OVC
08:10 -16.6 °C -18.8 °C 34635.4 hPa Calm     74 % 0 mm 7.0 W/m2 BKN
08:16 -16.6 °C -18.8 °C 34635.4 hPa Calm     74 % 0 mm 11.0 W/m2 BKN
08:21 -16.6 °C -18.9 °C 34645.6 hPa Calm     73 % 0 mm 12.0 W/m2 BKN
08:26 -16.6 °C -19.2 °C 34645.6 hPa Calm     71 % 0 mm 14.0 W/m2 BKN
08:31 -16.2 °C -19 °C 34645.6 hPa Calm     70 % 0 mm 18.0 W/m2 BKN
08:36 -16.2 °C -19.3 °C 34645.6 hPa Calm     67 % 0 mm 25.0 W/m2 BKN
08:46 -16.2 °C -19.1 °C 34659.1 hPa Calm     69 % 0 mm 49.0 W/m2 SCT
08:51 -15.9 °C -18.8 °C 34659.1 hPa Calm     69 % 0 mm 51.0 W/m2 SCT
08:56 -15.9 °C -18.9 °C 34659.1 hPa Calm     68 % 0 mm 72.0 W/m2 FEW
09:01 -15.9 °C -19.1 °C 34659.1 hPa Calm     66 % 0 mm 83.0 W/m2 FEW
09:06 -15.6 °C -18.9 °C 34659.1 hPa Calm     65 % 0 mm 91.0 W/m2 FEW
09:11 -15.3 °C -18.8 °C 34659.1 hPa Calm     64 % 0 mm 109.0 W/m2 CLR
09:16 -15.3 °C -18.8 °C 34659.1 hPa Calm     64 % 0 mm 142.0 W/m2 CLR
09:21 -15 °C -18.7 °C 34659.1 hPa Calm     62 % 0 mm 114.0 W/m2 CLR
09:26 -14.7 °C -18.6 °C 34659.1 hPa Calm     61 % 0 mm 183.0 W/m2 CLR
09:31 -14.7 °C -18.7 °C 34659.1 hPa Calm     60 % 0 mm 200.0 W/m2 CLR
09:36 -14.1 °C -18.2 °C 34659.1 hPa Calm     59 % 0 mm 218.0 W/m2 CLR
09:41 -14.1 °C -18.3 °C 34669.3 hPa Calm     58 % 0 mm 234.0 W/m2 CLR
09:46 -13.8 °C -18.3 °C 34669.3 hPa Calm     56 % 0 mm 251.0 W/m2 CLR
09:51 -13.2 °C -17.6 °C 34669.3 hPa Calm     57 % 0 mm 267.0 W/m2 CLR
09:56 -12.6 °C -17.4 °C 34669.3 hPa SW 20.9 km/h 20.9 km/h 54 % 0 mm 283.0 W/m2 CLR
10:01 -12.2 °C -17.7 °C 34669.3 hPa WSW 23.8 km/h 23.8 km/h 50 % 0 mm 299.0 W/m2 CLR
10:11 -10.7 °C -16.8 °C 34682.8 hPa WSW 26.9 km/h 26.9 km/h 47 % 0 mm 329.0 W/m2 CLR
10:16 -10.1 °C -16.2 °C 34669.3 hPa SW 20.9 km/h 20.9 km/h 47 % 0 mm 341.0 W/m2 CLR
10:21 -9.8 °C -15.9 °C 34669.3 hPa WSW 26.9 km/h 26.9 km/h 47 % 0 mm 355.0 W/m2 CLR
10:26 -9.4 °C -15.9 °C 34669.3 hPa SW 17.9 km/h 17.9 km/h 46 % 0 mm 367.0 W/m2 CLR
10:31 -9.1 °C -15.7 °C 34669.3 hPa SSW 26.9 km/h 26.9 km/h 45 % 0 mm 385.0 W/m2 CLR
10:36 -8.8 °C -15.7 °C 34682.8 hPa SSW 26.9 km/h 26.9 km/h 44 % 0 mm 399.0 W/m2 CLR
10:41 -8.8 °C -15.4 °C 34682.8 hPa WSW 20.9 km/h 20.9 km/h 45 % 0 mm 411.0 W/m2 CLR
10:46 -8.8 °C -15.7 °C 34682.8 hPa SW 18.2 km/h 18.2 km/h 44 % 0 mm 424.0 W/m2 CLR
10:51 -8.5 °C -15.4 °C 34669.3 hPa SW 23.8 km/h 23.8 km/h 44 % 0 mm 438.0 W/m2 CLR
10:56 -8.5 °C -15.4 °C 34669.3 hPa SW 15 km/h 15 km/h 44 % 0 mm 450.0 W/m2 CLR
11:01 -8.5 °C -15.6 °C 34669.3 hPa SSW 18.2 km/h 18.2 km/h 43 % 0 mm 462.0 W/m2 CLR
11:06 -8.5 °C -15.6 °C 34669.3 hPa SW 11.9 km/h 11.9 km/h 43 % 0 mm 475.0 W/m2 CLR
11:11 -8.2 °C -15.3 °C 34669.3 hPa SSW 20.9 km/h 20.9 km/h 43 % 0 mm 487.0 W/m2 CLR
11:16 -8.2 °C -15.3 °C 34669.3 hPa SW 17.9 km/h 17.9 km/h 43 % 0 mm 501.0 W/m2 CLR
11:21 -8.2 °C -15.3 °C 34669.3 hPa SSW 17.9 km/h 17.9 km/h 43 % 0 mm 510.0 W/m2 CLR
11:26 -8.2 °C -15.1 °C 34669.3 hPa SSE 23.8 km/h 23.8 km/h 44 % 0 mm 520.0 W/m2 CLR
11:31 -7.9 °C -15 °C 34669.3 hPa SSW 26.9 km/h 26.9 km/h 43 % 0 mm 531.0 W/m2 CLR
11:36 -7.9 °C -15 °C 34669.3 hPa SSW 26.9 km/h 26.9 km/h 43 % 0 mm 541.0 W/m2 CLR
11:41 -7.6 °C -14.9 °C 34669.3 hPa SSW 23.8 km/h 23.8 km/h 42 % 0 mm 552.0 W/m2 CLR
11:46 -7.6 °C -14.9 °C 34669.3 hPa WSW 20.9 km/h 20.9 km/h 42 % 0 mm 561.0 W/m2 CLR
11:51 -7.6 °C -14.9 °C 34669.3 hPa SW 15.6 km/h 15.6 km/h 42 % 0 mm 570.0 W/m2 CLR
11:56 -7.6 °C -15.1 °C 34669.3 hPa SSW 15 km/h 15 km/h 41 % 0 mm 578.0 W/m2 CLR
12:01 -7.3 °C -15 °C 34669.3 hPa SSW 17.9 km/h 17.9 km/h 40 % 0 mm 585.0 W/m2 CLR
12:06 -7 °C -14.7 °C 34669.3 hPa South 23.8 km/h 23.8 km/h 40 % 0 mm 596.0 W/m2 CLR
12:11 -7 °C -14.7 °C 34669.3 hPa South 29.8 km/h 29.8 km/h 40 % 0 mm 603.0 W/m2 CLR
12:16 -6.7 °C -14.4 °C 34669.3 hPa SW 29.8 km/h 29.8 km/h 40 % 0 mm 610.0 W/m2 CLR
12:21 -6.7 °C -14.4 °C 34659.1 hPa SW 23.3 km/h 23.3 km/h 40 % 0 mm 619.0 W/m2 CLR
12:26 -6.7 °C -14.7 °C 34659.1 hPa SSW 18.2 km/h 18.2 km/h 39 % 0 mm 624.0 W/m2 CLR
12:31 -6.3 °C -14.2 °C 34659.1 hPa South 26.9 km/h 26.9 km/h 40 % 0 mm 631.0 W/m2 CLR
12:36 -6.3 °C -14.6 °C 34659.1 hPa SSW 23.8 km/h 23.8 km/h 38 % 0 mm 635.0 W/m2 CLR
12:41 -6.1 °C -14.3 °C 34659.1 hPa SSW 29.8 km/h 29.8 km/h 38 % 0 mm 642.0 W/m2 CLR
12:46 -6.3 °C -14.4 °C 34659.1 hPa SW 23.8 km/h 23.8 km/h 39 % 0 mm 647.0 W/m2 CLR
12:51 -6.1 °C -14.3 °C 34659.1 hPa South 29.8 km/h 29.8 km/h 38 % 0 mm 652.0 W/m2 CLR
12:56 -6.1 °C -14.3 °C 34659.1 hPa SSW 20.9 km/h 20.9 km/h 38 % 0 mm 656.0 W/m2 CLR
13:01 -6.1 °C -14.3 °C 34659.1 hPa SW 29.8 km/h 29.8 km/h 38 % 0 mm 659.0 W/m2 CLR
13:06 -5.7 °C -14.1 °C 34659.1 hPa SSW 35.7 km/h 35.7 km/h 38 % 0 mm 663.0 W/m2 CLR
13:11 -5.7 °C -14.3 °C 34659.1 hPa WSW 17.9 km/h 17.9 km/h 37 % 0 mm 668.0 W/m2 CLR
13:16 -5.7 °C -14.3 °C 34645.6 hPa SW 26.9 km/h 26.9 km/h 37 % 0 mm 670.0 W/m2 CLR
13:21 -5.7 °C -14.5 °C 34645.6 hPa SW 29.8 km/h 29.8 km/h 36 % 0 mm 673.0 W/m2 CLR
13:26 -5.4 °C -14.2 °C 34645.6 hPa SSW 17.9 km/h 17.9 km/h 36 % 0 mm 675.0 W/m2 CLR
13:31 -5.7 °C -14.5 °C 34645.6 hPa SSW 20.9 km/h 20.9 km/h 36 % 0 mm 677.0 W/m2 CLR
13:36 -5.4 °C -14.2 °C 34645.6 hPa WSW 23.8 km/h 23.8 km/h 36 % 0 mm 682.0 W/m2 CLR
13:41 -5.4 °C -14.7 °C 34635.4 hPa SW 23.3 km/h 23.3 km/h 34 % 0 mm 679.0 W/m2 CLR
13:46 -5.4 °C -14.4 °C 34635.4 hPa WSW 17.9 km/h 17.9 km/h 35 % 0 mm 679.0 W/m2 CLR
13:51 -5.1 °C -14.4 °C 34635.4 hPa WSW 20.8 km/h 20.8 km/h 34 % 0 mm 679.0 W/m2 CLR
13:56 -5.1 °C -14.6 °C 34625.2 hPa SW 23.8 km/h 23.8 km/h 33 % 0 mm 679.0 W/m2 CLR
14:01 -5.1 °C -14.4 °C 34625.2 hPa WSW 20.9 km/h 20.9 km/h 34 % 0 mm 679.0 W/m2 CLR
14:06 -4.8 °C -14.6 °C 34625.2 hPa SW 12.9 km/h 12.9 km/h 32 % 0 mm 679.0 W/m2 CLR
14:11 -4.8 °C -14.6 °C 34625.2 hPa WSW 18.2 km/h 18.2 km/h 32 % 0 mm 675.0 W/m2 CLR
14:16 -4.8 °C -14.9 °C 34611.7 hPa SSW 15 km/h 15 km/h 31 % 0 mm 675.0 W/m2 CLR
14:21 -4.8 °C -14.3 °C 34611.7 hPa SW 20.9 km/h 20.9 km/h 33 % 0 mm 671.0 W/m2 CLR
14:22 -4.8 °C -14.6 °C 34611.7 hPa SW 20.9 km/h 20.9 km/h 32 % 0 mm 671.0 W/m2 CLR
14:27 -4.8 °C -14.9 °C 34611.7 hPa SSW 20.9 km/h 20.9 km/h 31 % 0 mm 668.0 W/m2 CLR
14:32 -4.8 °C -14.9 °C 34611.7 hPa SSW 11.9 km/h 11.9 km/h 31 % 0 mm 664.0 W/m2 CLR
14:37 -4.8 °C -15.1 °C 34611.7 hPa South 15 km/h   30 % 0 mm 663.0 W/m2 CLR
14:42 -4.5 °C -15.1 °C 34611.7 hPa SSW 11.9 km/h 11.9 km/h 29 % 0 mm 657.0 W/m2 CLR
14:47 -4.5 °C -14.8 °C 34601.5 hPa West 18.2 km/h 18.2 km/h 30 % 0 mm 654.0 W/m2 CLR
14:52 -4.5 °C -15.1 °C 34601.5 hPa SSW 23.8 km/h 23.8 km/h 29 % 0 mm 647.0 W/m2 CLR
14:57 -4.5 °C -15.1 °C 34601.5 hPa Calm     29 % 0 mm 643.0 W/m2 CLR
15:02 -4.2 °C -14.9 °C 34601.5 hPa SW 11.9 km/h 11.9 km/h 29 % 0 mm 638.0 W/m2 CLR
15:07 -4.2 °C -15.2 °C 34601.5 hPa West 15 km/h 15 km/h 28 % 0 mm 631.0 W/m2 CLR
15:12 -4.2 °C -15.2 °C 34601.5 hPa Calm     28 % 0 mm 624.0 W/m2 CLR
15:17 -4.5 °C -15.4 °C 34601.5 hPa South 20.9 km/h 20.9 km/h 28 % 0 mm 619.0 W/m2 CLR
15:22 -4.2 °C -15.2 °C 34591.4 hPa West 26.9 km/h 26.9 km/h 28 % 0 mm 610.0 W/m2 CLR
15:27 -4.2 °C -15.4 °C 34591.4 hPa West 3.1 km/h 3.1 km/h 27 % 0 mm 605.0 W/m2 CLR
15:32 -4.2 °C -15.4 °C 34591.4 hPa Calm     27 % 0 mm 596.0 W/m2 CLR
15:37 -4.2 °C -15.2 °C 34591.4 hPa West 23.8 km/h 23.8 km/h 28 % 0 mm 587.0 W/m2 CLR
15:42 -4.2 °C -15.4 °C 34591.4 hPa WSW 9 km/h 9 km/h 27 % 0 mm 578.0 W/m2 CLR
15:47 -3.9 °C -15.2 °C 34591.4 hPa SW 11.9 km/h 11.9 km/h 27 % 0 mm 571.0 W/m2 CLR
15:52 -4.5 °C -15.4 °C 34591.4 hPa West 3.1 km/h 3.1 km/h 28 % 0 mm 561.0 W/m2 CLR
15:57 -4.5 °C -15.7 °C 34577.8 hPa WSW 17.9 km/h 17.9 km/h 27 % 0 mm 548.0 W/m2 CLR
16:02 -4.2 °C -15.2 °C 34591.4 hPa Calm     28 % 0 mm 540.0 W/m2 CLR
16:07 -4.2 °C -15.2 °C 34577.8 hPa West 15 km/h 15 km/h 28 % 0 mm 531.0 W/m2 CLR
16:12 -4.5 °C -15.4 °C 34577.8 hPa Calm     28 % 0 mm 520.0 W/m2 CLR
16:17 -4.5 °C -15.1 °C 34577.8 hPa West 26.9 km/h 26.9 km/h 29 % 0 mm 506.0 W/m2 CLR
16:22 -4.2 °C -15.2 °C 34577.8 hPa Calm     28 % 0 mm 496.0 W/m2 CLR
16:27 -4.2 °C -14.9 °C 34577.8 hPa Calm     29 % 0 mm 483.0 W/m2 CLR
16:32 -4.2 °C -14.9 °C 34577.8 hPa West 15.6 km/h 15.6 km/h 29 % 0 mm 473.0 W/m2 CLR
16:37 -4.2 °C -14.9 °C 34577.8 hPa NW 15 km/h 15 km/h 29 % 0 mm 457.0 W/m2 CLR
16:42 -4.5 °C -15.1 °C 34577.8 hPa WNW 20.9 km/h 20.9 km/h 29 % 0 mm 446.0 W/m2 CLR
16:47 -4.5 °C -15.1 °C 34577.8 hPa Calm     29 % 0 mm 434.0 W/m2 CLR
16:52 -4.2 °C -14.9 °C 34577.8 hPa WNW 20.9 km/h 20.9 km/h 29 % 0 mm 420.0 W/m2 CLR
16:57 -4.2 °C -14.6 °C 34577.8 hPa West 18.2 km/h 18.2 km/h 30 % 0 mm 406.0 W/m2 CLR
17:02 -4.2 °C -14.6 °C 34577.8 hPa West 18.2 km/h 18.2 km/h 30 % 0 mm 390.0 W/m2 CLR
17:07 -4.5 °C -15.1 °C 34577.8 hPa Calm     29 % 0 mm 378.0 W/m2 CLR
17:12 -4.5 °C -14.8 °C 34567.7 hPa WNW 9 km/h 9 km/h 30 % 0 mm 364.0 W/m2 CLR
17:17 -4.2 °C -14.6 °C 34577.8 hPa WNW 17.9 km/h 17.9 km/h 30 % 0 mm 352.0 W/m2 CLR
17:22 -4.2 °C -14.6 °C 34567.7 hPa Calm     30 % 0 mm 334.0 W/m2 CLR
17:27 -4.5 °C -15.1 °C 34567.7 hPa WNW 9 km/h 9 km/h 29 % 0 mm 320.0 W/m2 CLR
17:32 -4.5 °C -14.8 °C 34567.7 hPa WNW 20.9 km/h 20.9 km/h 30 % 0 mm 309.0 W/m2 CLR
17:37 -4.5 °C -14.8 °C 34567.7 hPa Calm     30 % 0 mm 294.0 W/m2 CLR
17:42 -4.5 °C -15.1 °C 34567.7 hPa West 6 km/h 6 km/h 29 % 0 mm 276.0 W/m2 CLR
17:47 -4.5 °C -15.1 °C 34567.7 hPa Calm     29 % 0 mm 260.0 W/m2 CLR
17:52 -4.8 °C -15.1 °C 34567.7 hPa West 9 km/h 9 km/h 30 % 0 mm 243.0 W/m2 CLR
17:57 -4.8 °C -15.1 °C 34567.7 hPa West 9 km/h 9 km/h 30 % 0 mm 225.0 W/m2 CLR
18:07 -5.1 °C -15.1 °C 34567.7 hPa West 9 km/h 9 km/h 31 % 0 mm 186.0 W/m2 CLR
18:12 -5.1 °C -15.1 °C 34567.7 hPa Calm     31 % 0 mm 169.0 W/m2 CLR
18:17 -5.4 °C -15.4 °C 34567.7 hPa West 15 km/h 15 km/h 31 % 0 mm 151.0 W/m2 CLR
18:22 -5.7 °C -15.7 °C 34567.7 hPa WNW 9 km/h 9 km/h 31 % 0 mm 134.0 W/m2 CLR
18:27 -6.1 °C -15.9 °C 34567.7 hPa Calm     31 % 0 mm 114.0 W/m2 CLR
18:32 -6.1 °C -15.7 °C 34567.7 hPa WNW 9 km/h 9 km/h 32 % 0 mm 98.0 W/m2 CLR
18:37 -6.3 °C -15.9 °C 34567.7 hPa Calm     32 % 0 mm 81.0 W/m2 CLR
18:42 -6.7 °C -16.2 °C 34567.7 hPa Calm     32 % 0 mm 62.0 W/m2 FEW
18:47 -7 °C -16.5 °C 34567.7 hPa Calm     32 % 0 mm 54.0 W/m2 SCT
18:52 -7.3 °C -16.8 °C 34567.7 hPa Calm     32 % 0 mm 44.0 W/m2 SCT
18:57 -7.6 °C -17.1 °C 34567.7 hPa Calm     32 % 0 mm 32.0 W/m2 BKN
19:02 -7.9 °C -17.1 °C 34577.8 hPa Calm     33 % 0 mm 23.0 W/m2 BKN
19:07 -8.2 °C -17.3 °C 34577.8 hPa Calm     33 % 0 mm 14.0 W/m2 BKN
19:13 -8.5 °C -17.6 °C 34577.8 hPa Calm     33 % 0 mm 12.0 W/m2 BKN
19:18 -8.8 °C -17.7 °C 34577.8 hPa Calm     34 % 0 mm 11.0 W/m2 BKN
19:23 -9.1 °C -17.7 °C 34577.8 hPa Calm     35 % 0 mm 7.0 W/m2 BKN
19:28 -9.4 °C -17.9 °C 34577.8 hPa Calm     35 % 0 mm 5.0 W/m2 OVC
19:33 -9.4 °C -17.7 °C 34577.8 hPa Calm     36 % 0 mm 0.0 W/m2 OVC
19:38 -9.4 °C -17.7 °C 34577.8 hPa Calm     36 % 0 mm 0.0 W/m2 OVC
19:43 -9.4 °C -17.6 °C 34577.8 hPa Calm     37 % 0 mm 0.0 W/m2 CLR
19:48 -9.4 °C -17.3 °C 34591.4 hPa Calm     38 % 0 mm 0.0 W/m2 CLR
19:53 -9.8 °C -17.4 °C 34577.8 hPa Calm     39 % 0 mm 0.0 W/m2 CLR
19:58 -9.8 °C -17.2 °C 34591.4 hPa Calm     40 % 0 mm 0.0 W/m2 CLR
20:03 -10.1 °C -17.3 °C 34591.4 hPa Calm     41 % 0 mm 0.0 W/m2 CLR
20:08 -10.1 °C -16.9 °C 34591.4 hPa Calm     43 % 0 mm 0.0 W/m2 CLR
20:13 -10.4 °C -17.2 °C 34591.4 hPa Calm     43 % 0 mm 0.0 W/m2 CLR
20:18 -10.4 °C -17.1 °C 34591.4 hPa Calm     44 % 0 mm 0.0 W/m2 CLR
20:23 -10.7 °C -17.2 °C 34591.4 hPa Calm     45 % 0 mm 0.0 W/m2 CLR
20:28 -10.7 °C -17 °C 34591.4 hPa Calm     46 % 0 mm 0.0 W/m2 CLR
20:33 -11 °C -17.1 °C 34591.4 hPa Calm     47 % 0 mm 0.0 W/m2 CLR
20:38 -11 °C -17.1 °C 34591.4 hPa Calm     47 % 0 mm 0.0 W/m2 CLR
20:43 -11 °C -16.9 °C 34591.4 hPa Calm     48 % 0 mm 0.0 W/m2 CLR
20:48 -11 °C -16.9 °C 34591.4 hPa Calm     48 % 0 mm 0.0 W/m2 CLR
20:53 -11.3 °C -17.1 °C 34591.4 hPa Calm     49 % 0 mm 0.0 W/m2 CLR
20:58 -11.3 °C -17.1 °C 34591.4 hPa Calm     49 % 0 mm 0.0 W/m2 CLR
21:03 -11.3 °C -16.9 °C 34601.5 hPa Calm     50 % 0 mm 0.0 W/m2 CLR
21:08 -11.6 °C -17.2 °C 34591.4 hPa Calm     50 % 0 mm 0.0 W/m2 CLR
21:13 -11.3 °C -16.9 °C 34601.5 hPa Calm     50 % 0 mm 0.0 W/m2 CLR
21:18 -11.3 °C -16.8 °C 34601.5 hPa Calm     51 % 0 mm 0.0 W/m2 CLR
21:23 -11.3 °C -16.6 °C 34601.5 hPa Calm     52 % 0 mm 0.0 W/m2 CLR
21:28 -11.6 °C -17.1 °C 34601.5 hPa Calm     51 % 0 mm 0.0 W/m2 CLR
21:33 -11.6 °C -17.1 °C 34601.5 hPa Calm     51 % 0 mm 0.0 W/m2 CLR
21:38 -11.6 °C -17.1 °C 34601.5 hPa Calm     51 % 0 mm 0.0 W/m2 CLR
21:43 -11.9 °C -17.2 °C 34611.7 hPa Calm     52 % 0 mm 0.0 W/m2 CLR
21:48 -11.9 °C -17 °C 34611.7 hPa Calm     53 % 0 mm 0.0 W/m2 CLR
21:58 -12.2 °C -17.3 °C 34611.7 hPa Calm     53 % 0 mm 0.0 W/m2 CLR
22:03 -12.6 °C -17.6 °C 34611.7 hPa Calm     53 % 0 mm 0.0 W/m2 CLR
22:08 -12.6 °C -17.6 °C 34611.7 hPa Calm     53 % 0 mm 0.0 W/m2 CLR
22:13 -11.9 °C -17 °C 34611.7 hPa Calm     53 % 0 mm 0.0 W/m2 CLR
22:18 -11.9 °C -17 °C 34611.7 hPa Calm     53 % 0 mm 0.0 W/m2 CLR
22:23 -12.2 °C -17.3 °C 34625.2 hPa Calm     53 % 0 mm 0.0 W/m2 CLR
22:28 -12.2 °C -17.3 °C 34625.2 hPa Calm     53 % 0 mm 0.0 W/m2 CLR
22:33 -12.6 °C -17.6 °C 34625.2 hPa Calm     53 % 0 mm 0.0 W/m2 CLR
22:38 -12.6 °C -17.4 °C 34625.2 hPa Calm     54 % 0 mm 0.0 W/m2 CLR
22:43 -12.6 °C -17.4 °C 34625.2 hPa Calm     54 % 0 mm 0.0 W/m2 CLR
22:48 -12.6 °C -17.4 °C 34625.2 hPa Calm     54 % 0 mm 0.0 W/m2 CLR
22:53 -12.6 °C -17.4 °C 34625.2 hPa Calm     54 % 0 mm 0.0 W/m2 CLR
22:58 -12.8 °C -17.6 °C 34625.2 hPa Calm     55 % 0 mm 0.0 W/m2 CLR
23:03 -12.8 °C -17.4 °C 34625.2 hPa Calm     56 % 0 mm 0.0 W/m2 CLR
23:08 -13.2 °C -17.7 °C 34625.2 hPa Calm     56 % 0 mm 0.0 W/m2 CLR
23:13 -12.8 °C -17.4 °C 34625.2 hPa Calm     56 % 0 mm 0.0 W/m2 CLR
23:23 -12.6 °C -17.1 °C 34625.2 hPa Calm     57 % 0 mm 0.0 W/m2 CLR
23:28 -12.8 °C -17.3 °C 34625.2 hPa Calm     57 % 0 mm 0.0 W/m2 CLR
23:33 -12.8 °C -17.2 °C 34625.2 hPa Calm     58 % 0 mm 0.0 W/m2 CLR
23:38 -12.8 °C -17.1 °C 34625.2 hPa Calm     59 % 0 mm 0.0 W/m2 CLR
23:48 -12.8 °C -17.1 °C 34625.2 hPa Calm     59 % 0 mm 0.0 W/m2 CLR
23:53 -12.8 °C -17.1 °C 34625.2 hPa Calm     59 % 0 mm 0.0 W/m2 CLR
23:58 -12.8 °C -17.1 °C 34625.2 hPa Calm     59 % 0 mm 0.0 W/m2 CLR
Lo Temps de Massalio
Compliments of Weather Underground - 1.25 mb